Hawaiian Gardens, California
Current Conditions -  °F | °C
As of 9:58 AM on Sunday 23 Nov 2014 (Local Time) from KSLI Reporting Station
Broken Clouds Broken Clouds  
Wind Chill: 68°   Ceiling: 25000
Heat Index: 68°   Visibility: 10mi
Dew Point: 54°   Wind: 5mph
Humidity: 62%   Direction: 280°W
Pressure: 30.13"   Gusts: NA
Location:  33.83°N, 118.08°W
Report Text: KSLI 231758Z 28004KT 10SM BKN250 20/12 A3013 RMK AO2A SLP206 T01980123 10200 20096 51012
Loading
Personal Weather Stations






























Interactive Weather Map New forecast layout! Learn more

10-Day Weather Forecast

Advertisements
Track Severe Weather on mobile